Time;durP1;ratioP1;P1;durP2;ratioP2;P2;SDS_P1;SDS_P2;PMS_P1;PMS_P2;Temp;Humidity;BMP_temperature;BMP_pressure;BME280_temperature;BME280_humidity;BME280_pressure;Samples;Min_cycle;Max_cycle;Signal;HPM_P1;HPM_P2
2021/09/04 00:01:20;;;;;;;9.20;8.23;;;14.60;99.90;;;;;;4941301;29;20462;-85
2021/09/04 00:03:47;;;;;;;9.60;7.97;;;14.50;99.90;;;;;;4941632;29;20825;-84
2021/09/04 00:06:14;;;;;;;8.27;7.10;;;14.50;99.90;;;;;;4940274;29;20457;-84
2021/09/04 00:08:42;;;;;;;8.60;7.80;;;14.50;99.90;;;;;;4940908;29;20911;-84
2021/09/04 00:11:09;;;;;;;10.03;7.80;;;14.50;99.90;;;;;;4941312;29;20456;-84
2021/09/04 00:13:37;;;;;;;10.20;7.97;;;14.50;99.90;;;;;;4940226;29;20476;-84
2021/09/04 00:16:04;;;;;;;10.13;7.73;;;14.40;99.90;;;;;;4940587;29;20458;-84
2021/09/04 00:18:33;;;;;;;8.77;7.97;;;14.40;99.90;;;;;;4941191;29;20458;-84
2021/09/04 00:21:00;;;;;;;8.70;8.10;;;14.40;99.90;;;;;;4941434;29;20502;-83
2021/09/04 00:23:27;;;;;;;9.47;8.57;;;14.40;99.90;;;;;;4940599;29;20486;-85
2021/09/04 00:25:54;;;;;;;9.73;8.93;;;14.40;99.90;;;;;;4941058;29;20458;-85
2021/09/04 00:28:21;;;;;;;10.23;8.40;;;14.40;99.90;;;;;;4940499;29;20464;-84
2021/09/04 00:30:49;;;;;;;8.87;8.07;;;14.30;99.90;;;;;;4940587;29;20458;-84
2021/09/04 00:33:15;;;;;;;8.87;8.07;;;14.30;99.90;;;;;;4938839;29;20478;-83
2021/09/04 00:35:42;;;;;;;7.63;6.93;;;14.30;99.90;;;;;;4941076;29;20838;-83
2021/09/04 00:38:09;;;;;;;8.83;7.53;;;14.30;99.90;;;;;;4940773;29;20462;-85
2021/09/04 00:40:36;;;;;;;10.70;9.13;;;14.30;99.90;;;;;;4940474;29;20498;-82
2021/09/04 00:43:03;;;;;;;8.17;7.37;;;14.20;99.90;;;;;;4947231;29;20477;-82
2021/09/04 00:45:29;;;;;;;8.53;7.67;;;14.20;99.90;;;;;;4946977;29;20488;-82
2021/09/04 00:47:59;;;;;;;10.43;9.33;;;14.20;99.90;;;;;;4944345;29;20458;-82
2021/09/04 00:50:28;;;;;;;9.20;8.30;;;14.20;99.90;;;;;;4942275;29;20454;-83
2021/09/04 00:52:56;;;;;;;9.13;8.23;;;14.10;99.90;;;;;;4941222;29;20481;-83
2021/09/04 00:55:24;;;;;;;8.73;7.93;;;14.10;99.90;;;;;;4941789;29;20972;-83
2021/09/04 00:57:51;;;;;;;9.03;8.27;;;14.10;99.90;;;;;;4941370;29;20982;-83
2021/09/04 01:00:18;;;;;;;8.43;7.63;;;14.10;99.90;;;;;;4941694;29;20486;-83
2021/09/04 01:02:45;;;;;;;10.40;9.30;;;14.10;99.90;;;;;;4940639;29;20470;-83
2021/09/04 01:05:13;;;;;;;9.30;8.50;;;14.00;99.90;;;;;;4941540;29;20458;-83
2021/09/04 01:07:41;;;;;;;9.43;8.30;;;14.00;99.90;;;;;;4941687;29;20454;-83
2021/09/04 01:10:10;;;;;;;7.97;7.23;;;14.00;99.90;;;;;;4942003;29;20454;-83
2021/09/04 01:12:37;;;;;;;9.17;7.77;;;14.00;99.90;;;;;;4940936;29;20484;-83
2021/09/04 01:15:04;;;;;;;8.77;7.90;;;13.90;99.90;;;;;;4941196;29;20464;-84
2021/09/04 01:17:31;;;;;;;8.97;8.10;;;13.90;99.90;;;;;;4941249;29;21082;-83
2021/09/04 01:19:58;;;;;;;9.97;8.77;;;13.90;99.90;;;;;;4941748;29;20497;-83
2021/09/04 01:22:31;;;;;;;8.67;7.87;;;13.90;99.90;;;;;;4940261;29;20514;-83
2021/09/04 01:25:02;;;;;;;10.30;9.27;;;13.90;99.90;;;;;;4941081;29;20464;-83
2021/09/04 01:27:31;;;;;;;9.53;8.63;;;13.90;99.90;;;;;;4940448;29;20485;-83
2021/09/04 01:29:58;;;;;;;9.37;8.57;;;13.80;99.90;;;;;;4939921;29;20461;-83
2021/09/04 01:32:24;;;;;;;10.03;9.13;;;13.80;99.90;;;;;;4939422;29;20481;-83
2021/09/04 01:34:51;;;;;;;7.87;7.00;;;13.70;99.90;;;;;;4940371;29;20458;-83
2021/09/04 01:37:18;;;;;;;11.63;9.67;;;13.70;99.90;;;;;;4939669;29;20449;-83
2021/09/04 01:39:45;;;;;;;8.13;7.33;;;13.70;99.90;;;;;;4941062;29;20489;-83
2021/09/04 01:42:11;;;;;;;9.47;8.57;;;13.70;99.90;;;;;;4942661;29;20477;-82
2021/09/04 01:44:39;;;;;;;10.53;9.07;;;13.70;99.90;;;;;;4942680;29;20459;-82
2021/09/04 01:47:06;;;;;;;11.43;9.13;;;13.70;99.90;;;;;;4942685;29;20833;-82
2021/09/04 01:49:34;;;;;;;10.03;7.90;;;13.70;99.90;;;;;;4942632;29;20464;-83
2021/09/04 01:52:01;;;;;;;8.97;8.10;;;13.70;99.90;;;;;;4959595;23;20528;-81
2021/09/04 01:54:28;;;;;;;10.80;9.70;;;13.60;99.90;;;;;;4957599;29;20449;-81
2021/09/04 01:56:55;;;;;;;8.47;7.67;;;13.60;99.90;;;;;;4957504;29;20446;-81
2021/09/04 01:59:22;;;;;;;10.23;8.87;;;13.60;99.90;;;;;;4956433;29;20446;-80
2021/09/04 02:01:50;;;;;;;11.00;10.03;;;13.60;99.90;;;;;;4956628;29;20454;-81
2021/09/04 02:04:16;;;;;;;9.00;8.20;;;13.60;99.90;;;;;;4957472;29;20438;-81
2021/09/04 02:06:43;;;;;;;8.93;8.17;;;13.50;99.90;;;;;;4957183;29;20456;-80
2021/09/04 02:09:10;;;;;;;9.67;8.47;;;13.50;99.90;;;;;;4957582;29;20822;-81
2021/09/04 02:11:37;;;;;;;9.63;8.27;;;13.50;99.90;;;;;;4955790;29;20457;-80
2021/09/04 02:14:03;;;;;;;10.47;9.47;;;13.40;99.90;;;;;;4957308;29;20448;-81
2021/09/04 02:16:30;;;;;;;9.40;8.50;;;13.40;99.90;;;;;;4957118;29;20460;-81
2021/09/04 02:18:58;;;;;;;9.80;8.80;;;13.40;99.90;;;;;;4957480;29;20464;-81
2021/09/04 02:21:25;;;;;;;8.47;7.77;;;13.40;99.90;;;;;;4956551;29;20492;-80
2021/09/04 02:23:51;;;;;;;10.27;8.30;;;13.40;99.90;;;;;;4956586;29;20469;-81
2021/09/04 02:26:18;;;;;;;9.27;8.37;;;13.30;99.90;;;;;;4956995;29;20464;-81
2021/09/04 02:28:45;;;;;;;9.17;8.00;;;13.40;99.90;;;;;;4957156;29;20480;-81
2021/09/04 02:31:11;;;;;;;7.73;7.00;;;13.30;99.90;;;;;;4956256;29;20454;-81
2021/09/04 02:33:38;;;;;;;9.80;8.87;;;13.30;99.90;;;;;;4955661;29;20473;-81
2021/09/04 02:36:06;;;;;;;9.93;8.93;;;13.30;99.90;;;;;;4956706;29;20459;-81
2021/09/04 02:38:33;;;;;;;12.70;10.50;;;13.30;99.90;;;;;;4957022;29;20454;-81
2021/09/04 02:41:00;;;;;;;9.10;8.30;;;13.20;99.90;;;;;;4956932;29;20476;-81
2021/09/04 02:43:27;;;;;;;10.50;9.50;;;13.20;99.90;;;;;;4955950;29;20480;-81
2021/09/04 02:45:53;;;;;;;10.37;8.80;;;13.20;99.90;;;;;;4956364;29;20456;-81
2021/09/04 02:48:20;;;;;;;8.93;8.23;;;13.20;99.90;;;;;;4957097;29;20445;-81
2021/09/04 02:50:47;;;;;;;8.50;7.70;;;13.20;99.90;;;;;;4956359;29;20934;-81
2021/09/04 02:53:15;;;;;;;8.97;8.10;;;13.20;99.90;;;;;;4955510;29;20487;-81
2021/09/04 02:55:42;;;;;;;9.63;8.73;;;13.10;99.90;;;;;;4956901;29;20457;-81
2021/09/04 02:58:09;;;;;;;9.30;8.20;;;13.10;99.90;;;;;;4956285;29;20459;-81
2021/09/04 03:00:35;;;;;;;9.43;8.10;;;13.10;99.90;;;;;;4956483;29;20496;-81
2021/09/04 03:03:02;;;;;;;11.63;9.17;;;13.10;99.90;;;;;;4955650;29;20469;-80
2021/09/04 03:05:30;;;;;;;9.03;7.93;;;13.00;99.90;;;;;;4956378;29;20465;-81
2021/09/04 03:07:58;;;;;;;10.97;9.00;;;13.00;99.90;;;;;;4956441;29;20457;-81
2021/09/04 03:10:26;;;;;;;9.00;8.13;;;13.00;99.90;;;;;;4956570;29;21007;-81
2021/09/04 03:12:52;;;;;;;10.40;8.20;;;13.00;99.90;;;;;;4955705;29;20465;-80
2021/09/04 03:15:19;;;;;;;9.17;8.27;;;13.00;99.90;;;;;;4956281;29;20832;-81
2021/09/04 03:17:46;;;;;;;8.40;7.70;;;13.00;99.90;;;;;;4956154;29;20463;-81
2021/09/04 03:20:13;;;;;;;11.23;9.73;;;13.00;99.90;;;;;;4955897;29;20882;-81
2021/09/04 03:22:40;;;;;;;11.37;9.93;;;13.00;99.90;;;;;;4955487;29;20725;-80
2021/09/04 03:25:07;;;;;;;9.83;8.90;;;13.00;99.90;;;;;;4955650;29;20464;-81
2021/09/04 03:27:35;;;;;;;9.77;8.77;;;13.00;99.90;;;;;;4956058;29;20464;-81
2021/09/04 03:30:02;;;;;;;10.80;9.80;;;12.90;99.90;;;;;;4955782;29;20862;-81
2021/09/04 03:32:29;;;;;;;11.03;9.87;;;12.90;99.90;;;;;;4954890;29;20476;-81
2021/09/04 03:34:56;;;;;;;10.03;9.03;;;12.90;99.90;;;;;;4955951;29;20453;-81
2021/09/04 03:37:23;;;;;;;9.90;9.00;;;12.90;99.90;;;;;;4955843;29;20437;-81
2021/09/04 03:39:50;;;;;;;10.00;9.07;;;12.90;99.90;;;;;;4955628;29;20464;-80
2021/09/04 03:42:17;;;;;;;10.20;9.13;;;12.90;99.90;;;;;;4955334;29;20462;-81
2021/09/04 03:44:45;;;;;;;10.60;9.63;;;12.90;99.90;;;;;;4956031;29;20460;-81
2021/09/04 03:47:12;;;;;;;8.50;7.70;;;12.90;99.90;;;;;;4955329;29;20517;-80
2021/09/04 03:49:39;;;;;;;9.67;8.73;;;12.90;99.90;;;;;;4955602;29;20517;-81
2021/09/04 03:52:06;;;;;;;9.60;8.43;;;12.90;99.90;;;;;;4954792;29;20470;-80
2021/09/04 03:54:33;;;;;;;8.73;7.87;;;12.90;99.90;;;;;;4955987;29;20808;-80
2021/09/04 03:57:00;;;;;;;9.50;8.70;;;12.80;99.90;;;;;;4955344;29;20479;-81
2021/09/04 03:59:26;;;;;;;8.13;7.33;;;12.80;99.90;;;;;;4954505;29;20456;-82
2021/09/04 04:01:54;;;;;;;9.83;8.90;;;12.80;99.90;;;;;;4953776;29;20503;-82
2021/09/04 04:04:21;;;;;;;11.80;8.90;;;12.80;99.90;;;;;;4953420;29;20464;-82
2021/09/04 04:06:48;;;;;;;9.60;8.70;;;12.70;99.90;;;;;;4955339;29;20456;-82
2021/09/04 04:09:15;;;;;;;9.73;8.90;;;12.70;99.90;;;;;;4954420;29;20982;-81
2021/09/04 04:11:41;;;;;;;9.73;8.83;;;12.70;99.90;;;;;;4954254;29;20441;-82
2021/09/04 04:14:08;;;;;;;10.77;8.93;;;12.70;99.90;;;;;;4955055;29;20460;-82
2021/09/04 04:16:35;;;;;;;10.40;9.30;;;12.70;99.90;;;;;;4954491;29;20464;-80
2021/09/04 04:19:03;;;;;;;11.53;9.57;;;12.70;99.90;;;;;;4955163;29;20501;-82
2021/09/04 04:21:30;;;;;;;11.67;10.17;;;12.70;99.90;;;;;;4953693;29;20493;-82
2021/09/04 04:23:56;;;;;;;10.77;9.80;;;12.70;99.90;;;;;;4954812;29;20490;-82
2021/09/04 04:26:23;;;;;;;10.30;9.30;;;12.70;99.90;;;;;;4955110;29;20450;-82
2021/09/04 04:28:50;;;;;;;11.00;9.77;;;12.70;99.90;;;;;;4954625;29;20449;-82
2021/09/04 04:31:16;;;;;;;10.70;8.87;;;12.60;99.90;;;;;;4954109;29;20968;-81
2021/09/04 04:33:43;;;;;;;8.90;8.10;;;12.60;99.90;;;;;;4954129;29;20469;-80
2021/09/04 04:36:11;;;;;;;9.30;8.50;;;12.70;99.90;;;;;;4954975;29;20449;-82
2021/09/04 04:38:38;;;;;;;10.13;9.23;;;12.60;99.90;;;;;;4954289;29;20471;-82
2021/09/04 04:41:05;;;;;;;10.33;8.77;;;12.60;99.90;;;;;;4954354;29;20498;-82
2021/09/04 04:43:31;;;;;;;9.53;8.63;;;12.70;99.90;;;;;;4953877;29;20474;-82
2021/09/04 04:45:58;;;;;;;9.17;8.47;;;12.60;99.90;;;;;;4954252;29;20964;-82
2021/09/04 04:48:25;;;;;;;11.30;10.00;;;12.60;99.90;;;;;;4953576;29;20460;-82
2021/09/04 04:50:52;;;;;;;10.40;9.43;;;12.60;99.90;;;;;;4954683;29;20452;-82
2021/09/04 04:53:20;;;;;;;12.30;10.30;;;12.60;99.90;;;;;;4953269;29;20485;-82
2021/09/04 04:55:46;;;;;;;11.00;9.83;;;12.60;99.90;;;;;;4954317;29;20464;-82
2021/09/04 04:58:13;;;;;;;11.00;8.77;;;12.60;99.90;;;;;;4954087;29;20472;-82
2021/09/04 05:00:40;;;;;;;10.27;9.43;;;12.60;99.90;;;;;;4954437;29;20489;-82
2021/09/04 05:03:07;;;;;;;10.90;9.53;;;12.60;99.90;;;;;;4953833;29;20469;-80
2021/09/04 05:05:34;;;;;;;11.70;10.50;;;12.60;99.90;;;;;;4954479;29;20449;-83
2021/09/04 05:08:01;;;;;;;11.17;9.97;;;12.60;99.90;;;;;;4955234;29;20480;-80
2021/09/04 05:10:29;;;;;;;11.00;9.80;;;12.60;99.90;;;;;;4956136;29;20459;-80
2021/09/04 05:12:56;;;;;;;13.47;12.07;;;12.60;99.90;;;;;;4956154;29;20469;-80
2021/09/04 05:15:23;;;;;;;12.67;10.53;;;12.60;99.90;;;;;;4959760;29;20460;-80
2021/09/04 05:17:49;;;;;;;16.63;14.37;;;12.60;99.90;;;;;;4958694;29;20466;-82
2021/09/04 05:20:16;;;;;;;15.77;14.17;;;12.70;99.90;;;;;;4958721;29;20458;-82
2021/09/04 05:22:46;;;;;;;16.40;14.07;;;12.70;99.90;;;;;;4957504;29;20478;-82
2021/09/04 05:25:13;;;;;;;15.90;14.17;;;12.70;99.90;;;;;;4958485;29;20469;-83
2021/09/04 05:27:41;;;;;;;16.27;14.67;;;12.80;99.90;;;;;;4957984;29;20454;-82
2021/09/04 05:30:09;;;;;;;18.33;16.43;;;12.80;99.90;;;;;;4958056;29;20452;-82
2021/09/04 05:32:36;;;;;;;16.30;13.57;;;12.80;99.90;;;;;;4957447;29;20469;-82
2021/09/04 05:35:03;;;;;;;18.70;16.83;;;12.90;99.90;;;;;;4958279;29;20525;-83
2021/09/04 05:37:29;;;;;;;20.67;16.43;;;12.90;99.90;;;;;;4958218;29;20432;-81
2021/09/04 05:39:56;;;;;;;16.70;15.07;;;12.90;99.90;;;;;;4957329;29;20457;-80
2021/09/04 05:42:23;;;;;;;17.17;14.60;;;13.00;99.90;;;;;;4956790;29;20502;-83
2021/09/04 05:44:51;;;;;;;15.80;14.23;;;13.00;99.90;;;;;;4958448;29;20449;-82
2021/09/04 05:47:18;;;;;;;14.70;13.33;;;13.00;99.90;;;;;;4958217;29;20450;-82
2021/09/04 05:49:44;;;;;;;15.43;13.90;;;13.10;99.90;;;;;;4957587;29;20452;-83
2021/09/04 05:52:11;;;;;;;17.43;15.53;;;13.10;99.90;;;;;;4957026;29;20473;-83
2021/09/04 05:54:38;;;;;;;16.70;15.10;;;13.10;99.90;;;;;;4957869;29;20447;-82
2021/09/04 05:57:05;;;;;;;17.40;14.90;;;13.20;99.90;;;;;;4958140;29;20464;-82
2021/09/04 05:59:31;;;;;;;14.33;13.00;;;13.20;99.90;;;;;;4958441;29;20445;-83
2021/09/04 06:02:00;;;;;;;15.87;14.17;;;13.30;99.90;;;;;;4956723;29;20501;-82
2021/09/04 06:04:26;;;;;;;14.50;13.10;;;13.30;99.90;;;;;;4958051;29;20461;-83
2021/09/04 06:06:53;;;;;;;16.03;13.13;;;13.30;99.90;;;;;;4957816;29;20453;-82
2021/09/04 06:09:22;;;;;;;17.60;15.80;;;13.40;99.90;;;;;;4957787;29;20476;-83
2021/09/04 06:11:49;;;;;;;15.63;14.03;;;13.40;99.90;;;;;;4956836;29;20478;-82
2021/09/04 06:14:16;;;;;;;16.50;13.10;;;13.50;99.90;;;;;;4958289;29;20430;-82
2021/09/04 06:16:42;;;;;;;15.40;13.67;;;13.60;99.90;;;;;;4956639;29;20461;-82
2021/09/04 06:19:10;;;;;;;18.40;14.90;;;13.70;99.90;;;;;;4957141;29;20461;-82
2021/09/04 06:21:37;;;;;;;13.57;12.37;;;13.70;99.90;;;;;;4956319;29;20501;-83
2021/09/04 06:24:04;;;;;;;14.27;12.93;;;13.80;99.90;;;;;;4957340;29;20456;-80
2021/09/04 06:26:31;;;;;;;19.27;17.30;;;13.90;99.90;;;;;;4956117;29;20456;-81
2021/09/04 06:28:58;;;;;;;16.03;14.53;;;13.90;99.90;;;;;;4957282;29;20449;-81
2021/09/04 06:31:25;;;;;;;15.60;13.97;;;14.00;99.90;;;;;;4956248;29;20951;-81
2021/09/04 06:33:51;;;;;;;16.93;15.17;;;14.10;99.90;;;;;;4956251;29;20467;-82
2021/09/04 06:36:19;;;;;;;17.30;15.47;;;14.20;99.90;;;;;;4956641;29;20449;-81
2021/09/04 06:38:47;;;;;;;15.57;14.27;;;14.20;99.90;;;;;;4957050;29;20472;-83
2021/09/04 06:41:14;;;;;;;14.60;13.17;;;14.30;99.90;;;;;;4956010;29;21029;-83
2021/09/04 06:43:40;;;;;;;16.07;14.47;;;14.40;99.90;;;;;;4956389;29;20488;-81
2021/09/04 06:46:07;;;;;;;14.70;13.20;;;14.40;99.90;;;;;;4956824;29;20456;-81
2021/09/04 06:48:34;;;;;;;13.63;12.23;;;14.50;99.90;;;;;;4957145;29;20456;-81
2021/09/04 06:51:01;;;;;;;13.90;12.60;;;14.60;99.90;;;;;;4955868;29;20483;-81
2021/09/04 06:53:29;;;;;;;17.93;14.00;;;14.70;99.90;;;;;;4955638;29;20482;-82
2021/09/04 06:55:56;;;;;;;14.30;12.90;;;14.80;99.90;;;;;;4955099;29;20446;-82
2021/09/04 06:58:22;;;;;;;13.27;12.00;;;14.90;99.90;;;;;;4955932;29;20460;-81
2021/09/04 07:00:49;;;;;;;14.60;12.80;;;15.00;99.90;;;;;;4956373;29;20461;-81
2021/09/04 07:03:16;;;;;;;14.40;12.43;;;15.20;99.90;;;;;;4955786;29;20474;-81
2021/09/04 07:05:42;;;;;;;14.30;13.00;;;15.30;99.90;;;;;;4957187;29;20456;-82
2021/09/04 07:08:09;;;;;;;14.33;12.90;;;15.40;99.90;;;;;;4956522;29;20840;-81
2021/09/04 07:10:37;;;;;;;14.13;12.90;;;15.50;99.90;;;;;;4956373;29;20457;-81
2021/09/04 07:13:04;;;;;;;16.47;14.83;;;15.60;99.90;;;;;;4955329;29;20470;-81
2021/09/04 07:15:30;;;;;;;16.87;15.10;;;15.60;99.90;;;;;;4955944;29;20462;-83
2021/09/04 07:17:57;;;;;;;15.20;13.60;;;15.80;99.90;;;;;;4956180;29;20460;-81
2021/09/04 07:20:24;;;;;;;13.53;12.23;;;15.80;99.90;;;;;;4956661;29;20808;-81
2021/09/04 07:22:51;;;;;;;14.00;11.83;;;15.90;99.90;;;;;;4955093;29;20495;-81
2021/09/04 07:25:18;;;;;;;13.47;12.03;;;16.00;99.90;;;;;;4956096;29;20457;-84
2021/09/04 07:27:47;;;;;;;14.27;12.80;;;16.10;99.90;;;;;;4955826;29;20455;-81
2021/09/04 07:30:15;;;;;;;13.00;12.00;;;16.20;99.90;;;;;;4955447;29;20486;-81
2021/09/04 07:32:42;;;;;;;13.23;12.13;;;16.30;99.90;;;;;;4954412;29;20531;-83
2021/09/04 07:35:10;;;;;;;13.63;12.33;;;16.40;99.90;;;;;;4955292;29;20457;-83
2021/09/04 07:37:37;;;;;;;14.30;11.67;;;16.50;99.90;;;;;;4954897;29;20458;-84
2021/09/04 07:40:04;;;;;;;11.77;10.67;;;16.50;99.90;;;;;;4955592;29;20470;-83
2021/09/04 07:42:31;;;;;;;13.67;12.33;;;16.70;99.90;;;;;;4955007;29;20891;-83
2021/09/04 07:44:59;;;;;;;12.77;11.57;;;16.80;99.90;;;;;;4955347;29;20439;-84
2021/09/04 07:47:26;;;;;;;12.03;10.90;;;16.90;99.90;;;;;;4955710;29;20456;-83
2021/09/04 07:49:52;;;;;;;13.43;12.23;;;17.00;99.90;;;;;;4956267;29;20459;-83
2021/09/04 07:52:19;;;;;;;13.50;12.30;;;17.10;99.90;;;;;;4969910;23;20491;-83
2021/09/04 07:54:49;;;;;;;12.87;11.53;;;17.10;99.90;;;;;;4960529;29;20460;-84
2021/09/04 07:57:16;;;;;;;13.37;12.07;;;17.20;99.90;;;;;;4961706;28;20445;-84
2021/09/04 07:59:43;;;;;;;13.53;12.17;;;17.30;99.90;;;;;;4960487;29;20458;-84
2021/09/04 08:02:11;;;;;;;12.87;10.60;;;17.40;99.90;;;;;;4960468;29;20532;-85
2021/09/04 08:04:38;;;;;;;12.40;11.40;;;17.50;99.90;;;;;;4960439;29;20459;-84
2021/09/04 08:07:04;;;;;;;13.03;11.70;;;17.60;99.90;;;;;;4960238;28;20467;-85
2021/09/04 08:09:31;;;;;;;12.77;11.50;;;17.70;99.90;;;;;;4960581;29;20461;-85
2021/09/04 08:11:58;;;;;;;15.00;12.90;;;17.80;99.90;;;;;;4960189;28;20455;-84
2021/09/04 08:14:25;;;;;;;12.03;11.03;;;17.90;99.90;;;;;;4960181;28;20479;-85
2021/09/04 08:16:52;;;;;;;14.43;10.90;;;18.10;99.90;;;;;;4960356;29;20471;-83
2021/09/04 08:19:20;;;;;;;11.60;10.13;;;18.20;99.90;;;;;;4958216;28;20460;-84
2021/09/04 08:21:46;;;;;;;9.23;8.43;;;18.30;99.90;;;;;;4956066;29;20957;-84
2021/09/04 08:24:13;;;;;;;10.27;9.37;;;18.40;99.90;;;;;;4956012;29;20477;-84
2021/09/04 08:26:40;;;;;;;9.77;8.37;;;18.50;99.90;;;;;;4955056;29;20816;-84
2021/09/04 08:29:07;;;;;;;10.13;9.13;;;18.70;99.90;;;;;;4955411;29;20440;-85
2021/09/04 08:31:34;;;;;;;9.53;7.80;;;18.70;99.90;;;;;;4954122;28;20956;-85
2021/09/04 08:34:00;;;;;;;8.90;8.00;;;18.90;99.90;;;;;;4952711;29;20848;-85
2021/09/04 08:36:29;;;;;;;10.67;9.13;;;19.00;99.90;;;;;;4957160;28;20460;-86
2021/09/04 08:38:55;;;;;;;10.13;8.93;;;19.10;99.90;;;;;;4957316;28;20541;-85
2021/09/04 08:41:22;;;;;;;10.07;9.27;;;19.20;99.90;;;;;;4954907;29;20807;-86
2021/09/04 08:43:49;;;;;;;9.40;8.43;;;19.30;99.90;;;;;;4936779;29;20482;-85
2021/09/04 08:46:16;;;;;;;9.10;8.30;;;19.30;99.90;;;;;;4938801;29;20459;-85
2021/09/04 08:48:52;;;;;;;8.70;7.80;;;19.40;99.90;;;;;;4938804;29;20517;-86
2021/09/04 08:51:19;;;;;;;8.53;7.53;;;19.50;99.90;;;;;;4939477;29;20448;-86
2021/09/04 08:53:47;;;;;;;8.23;7.43;;;19.60;99.90;;;;;;4939948;29;20532;-85
2021/09/04 08:56:14;;;;;;;7.60;7.00;;;19.70;99.90;;;;;;4939323;29;20461;-86
2021/09/04 08:58:41;;;;;;;6.97;6.37;;;19.70;99.90;;;;;;4939617;29;20461;-86
2021/09/04 09:01:15;;;;;;;8.50;7.70;;;19.70;99.90;;;;;;4939108;29;20466;-86
2021/09/04 09:03:43;;;;;;;8.70;7.57;;;19.90;99.90;;;;;;4947288;29;20533;-87
2021/09/04 09:06:10;;;;;;;7.60;6.90;;;19.90;99.90;;;;;;4941635;29;20461;-83
2021/09/04 09:08:43;;;;;;;7.63;6.83;;;20.00;99.90;;;;;;4941521;29;20471;-86
2021/09/04 09:11:12;;;;;;;8.20;7.50;;;20.10;99.90;;;;;;4942173;29;20518;-85
2021/09/04 09:13:47;;;;;;;8.20;7.50;;;20.30;99.90;;;;;;4943336;29;20475;-85
2021/09/04 09:16:15;;;;;;;8.13;7.43;;;20.40;99.90;;;;;;4943911;29;20462;-85
2021/09/04 09:18:42;;;;;;;7.07;6.40;;;20.50;99.90;;;;;;4944165;29;20455;-86
2021/09/04 09:21:09;;;;;;;8.43;7.20;;;20.60;99.90;;;;;;4943887;29;20459;-84
2021/09/04 09:23:36;;;;;;;7.83;7.13;;;20.80;99.90;;;;;;4943492;29;20496;-85
2021/09/04 09:26:11;;;;;;;9.23;7.13;;;20.90;99.90;;;;;;4945934;29;20659;-86
2021/09/04 09:28:39;;;;;;;6.70;6.10;;;21.00;99.90;;;;;;4945739;29;20456;-84
2021/09/04 09:31:06;;;;;;;6.40;5.80;;;21.10;99.90;;;;;;4945338;29;20451;-85
2021/09/04 09:33:33;;;;;;;6.50;6.00;;;21.20;99.90;;;;;;4944322;29;20546;-82
2021/09/04 09:36:02;;;;;;;8.93;6.47;;;21.40;99.90;;;;;;4945709;29;20460;-84
2021/09/04 09:38:30;;;;;;;6.20;5.60;;;21.50;99.90;;;;;;4947561;29;20455;-84
2021/09/04 09:40:58;;;;;;;6.57;6.00;;;21.60;99.30;;;;;;4946557;29;20464;-83
2021/09/04 09:43:29;;;;;;;7.00;5.80;;;21.70;99.10;;;;;;4945373;29;20497;-83
2021/09/04 09:45:58;;;;;;;7.43;6.70;;;21.80;99.10;;;;;;4946521;29;20456;-84
2021/09/04 09:48:26;;;;;;;6.17;5.57;;;21.90;98.30;;;;;;4945313;29;20474;-84
2021/09/04 09:50:54;;;;;;;6.33;5.83;;;22.00;99.00;;;;;;4943404;29;20464;-83
2021/09/04 09:53:22;;;;;;;6.60;6.10;;;22.10;96.50;;;;;;4943645;29;20486;-85
2021/09/04 09:55:51;;;;;;;5.27;4.77;;;22.20;97.40;;;;;;4942761;29;20449;-85
2021/09/04 09:58:20;;;;;;;6.00;5.40;;;22.30;97.20;;;;;;4944166;29;20835;-85
2021/09/04 10:00:50;;;;;;;6.30;5.43;;;22.30;96.00;;;;;;4942589;29;20463;-84
2021/09/04 10:03:19;;;;;;;5.30;4.83;;;22.50;97.30;;;;;;4945906;29;20505;-85
2021/09/04 10:05:47;;;;;;;6.47;5.80;;;22.60;96.80;;;;;;4947654;29;20460;-83
2021/09/04 10:08:15;;;;;;;6.33;5.13;;;22.70;95.70;;;;;;4948306;29;20464;-83
2021/09/04 10:10:43;;;;;;;5.60;5.10;;;22.80;96.50;;;;;;4945716;29;20454;-83
2021/09/04 10:13:12;;;;;;;5.73;5.23;;;22.90;96.10;;;;;;4943498;29;20480;-83
2021/09/04 10:15:40;;;;;;;5.77;5.23;;;23.00;94.50;;;;;;4946723;29;20450;-85
2021/09/04 10:18:11;;;;;;;5.93;4.40;;;23.10;93.50;;;;;;4944202;29;20559;-84
2021/09/04 10:20:38;;;;;;;6.83;6.23;;;23.30;94.30;;;;;;4943452;29;20549;-83
2021/09/04 10:23:15;;;;;;;5.30;4.80;;;23.40;93.90;;;;;;4943169;29;20493;-83
2021/09/04 10:25:42;;;;;;;5.23;4.73;;;23.60;92.10;;;;;;4945531;29;20454;-83
2021/09/04 10:28:14;;;;;;;5.30;4.43;;;23.70;93.50;;;;;;4944693;29;20446;-84
2021/09/04 10:30:43;;;;;;;6.50;5.63;;;23.80;92.90;;;;;;4946301;29;20833;-84
2021/09/04 10:33:13;;;;;;;4.90;4.50;;;23.90;90.80;;;;;;4945538;29;20474;-83
2021/09/04 10:35:46;;;;;;;7.87;7.17;;;24.10;88.60;;;;;;4951556;29;20957;-83
2021/09/04 10:38:31;;;;;;;5.57;4.43;;;24.10;90.60;;;;;;4948677;29;20481;-84
2021/09/04 10:41:20;;;;;;;4.63;4.27;;;24.30;90.60;;;;;;4946093;29;20512;-84
2021/09/04 10:43:49;;;;;;;5.60;4.60;;;24.40;90.00;;;;;;4943167;29;20873;-83
2021/09/04 10:46:17;;;;;;;5.57;5.13;;;24.50;88.00;;;;;;4944314;29;21044;-84
2021/09/04 10:48:56;;;;;;;5.40;4.90;;;24.80;85.70;;;;;;4944031;29;20540;-84
2021/09/04 10:51:47;;;;;;;5.17;4.77;;;24.90;83.60;;;;;;4942019;29;20456;-83
2021/09/04 10:54:41;;;;;;;5.23;4.73;;;25.00;79.20;;;;;;4943418;29;20527;-84
2021/09/04 10:57:16;;;;;;;4.20;3.90;;;25.10;82.30;;;;;;4943265;29;20460;-84
2021/09/04 11:00:10;;;;;;;7.40;5.10;;;25.20;80.10;;;;;;4940539;29;20460;-85
2021/09/04 11:02:41;;;;;;;4.50;4.10;;;25.40;81.20;;;;;;4938568;29;20499;-84
2021/09/04 11:05:48;;;;;;;4.77;4.37;;;25.80;81.80;;;;;;4939246;29;20961;-84
2021/09/04 11:08:34;;;;;;;5.03;4.63;;;26.30;81.20;;;;;;4941151;29;20468;-85
2021/09/04 11:11:16;;;;;;;4.53;4.13;;;26.80;78.00;;;;;;4942196;29;20463;-86
2021/09/04 11:13:44;;;;;;;4.97;4.57;;;27.40;78.50;;;;;;4943124;29;20471;-85
2021/09/04 11:16:32;;;;;;;4.27;3.97;;;28.00;75.60;;;;;;4943914;29;20516;-84
2021/09/04 11:19:09;;;;;;;5.50;5.10;;;28.40;68.60;;;;;;4941792;29;20453;-84
2021/09/04 11:21:47;;;;;;;5.60;5.10;;;29.00;71.80;;;;;;4945746;29;20961;-85
2021/09/04 11:24:19;;;;;;;5.17;4.77;;;29.50;67.50;;;;;;4944059;29;20513;-84
2021/09/04 11:27:07;;;;;;;5.93;5.20;;;30.00;66.00;;;;;;4947843;29;20454;-84
2021/09/04 11:29:39;;;;;;;4.43;4.13;;;30.50;62.00;;;;;;4945718;29;20467;-84
2021/09/04 11:32:06;;;;;;;5.40;4.90;;;30.90;61.60;;;;;;4939505;29;20457;-84
2021/09/04 11:34:42;;;;;;;5.87;5.40;;;31.20;60.40;;;;;;4938778;29;20824;-83
2021/09/04 11:37:32;;;;;;;5.43;4.43;;;31.30;61.50;;;;;;4939634;29;20458;-84
2021/09/04 11:40:07;;;;;;;5.67;5.27;;;31.70;61.00;;;;;;4938740;29;20445;-84
2021/09/04 11:42:37;;;;;;;5.40;5.00;;;32.20;62.00;;;;;;4938961;29;20474;-84
2021/09/04 11:45:06;;;;;;;5.70;5.13;;;32.70;58.10;;;;;;4940031;29;20462;-83
2021/09/04 11:47:35;;;;;;;5.37;4.90;;;33.10;56.20;;;;;;4945749;29;20462;-83
2021/09/04 11:50:04;;;;;;;5.10;4.70;;;33.50;51.90;;;;;;4953462;29;20474;-83
2021/09/04 11:52:34;;;;;;;5.40;4.60;;;33.50;50.70;;;;;;4947139;29;20477;-84
2021/09/04 11:55:13;;;;;;;5.43;5.03;;;33.70;52.40;;;;;;4945770;29;20560;-84
2021/09/04 11:57:42;;;;;;;5.10;4.80;;;33.90;52.00;;;;;;4946598;29;20533;-84
2021/09/04 12:00:12;;;;;;;4.60;4.20;;;34.30;51.50;;;;;;4946349;29;20524;-84
2021/09/04 12:02:46;;;;;;;5.43;4.93;;;34.70;49.00;;;;;;4946425;29;20477;-84
2021/09/04 12:05:15;;;;;;;5.13;4.60;;;34.60;47.50;;;;;;4938196;29;20457;-84
2021/09/04 12:07:44;;;;;;;5.07;4.67;;;34.70;51.00;;;;;;4942067;29;20545;-85
2021/09/04 12:10:12;;;;;;;4.60;4.30;;;35.00;47.70;;;;;;4942851;29;20464;-85
2021/09/04 12:12:41;;;;;;;5.07;4.57;;;35.40;47.00;;;;;;4940715;29;20501;-85
2021/09/04 12:15:12;;;;;;;4.63;4.23;;;35.60;47.40;;;;;;4940640;29;20485;-83
2021/09/04 12:17:51;;;;;;;4.00;3.70;;;36.10;45.70;;;;;;4939664;29;20521;-84
2021/09/04 12:20:20;;;;;;;4.37;4.07;;;36.60;43.70;;;;;;4939761;29;20466;-84
2021/09/04 12:22:48;;;;;;;4.43;4.13;;;37.10;42.80;;;;;;4939248;29;20484;-84
2021/09/04 12:25:25;;;;;;;4.90;4.60;;;37.20;40.80;;;;;;4937690;29;20464;-85
2021/09/04 12:27:59;;;;;;;4.73;4.40;;;36.90;40.60;;;;;;4938230;29;20461;-86
2021/09/04 12:30:26;;;;;;;5.03;4.63;;;36.90;39.60;;;;;;4946977;29;20449;-83
2021/09/04 12:33:03;;;;;;;4.47;4.13;;;36.20;39.00;;;;;;4942965;29;20524;-82
2021/09/04 12:35:55;;;;;;;4.37;4.07;;;35.20;40.50;;;;;;4941902;29;20513;-82
2021/09/04 12:38:25;;;;;;;4.77;4.43;;;34.60;40.70;;;;;;4943919;29;20955;-82
2021/09/04 12:41:14;;;;;;;5.00;4.50;;;34.80;41.30;;;;;;4942354;28;20456;-85
2021/09/04 12:43:52;;;;;;;4.90;4.40;;;35.30;43.30;;;;;;4949550;29;20468;-84
2021/09/04 12:46:35;;;;;;;4.47;4.07;;;35.50;41.80;;;;;;4958464;29;20944;-84
2021/09/04 12:49:18;;;;;;;4.60;4.30;;;35.90;41.60;;;;;;4963244;29;20941;-84